• Join FlightAware (Why Join?)
  • Login
  • US Flag 
09:19AM EDT


 

Airport Tracker/Info


-or-


 

Live Flight TrackerFlight Track Log ✈ SWA862 ✈ 12-Apr-2013 ✈ KTPA - KRDU

Flight Track Log - Related Links

Times and Time Zones

All times are in EDT time to prevent confusion due to time zone crossing. See the SWA862 flight status page for this flight to view local times or setup timezone preferences in your user account.

Time Position Orientation Groundspeed Altitude Reporting Facility
EDT Latitude Longitude Course Direction KTS MPH feet Rate Location/Type
06:11PM 27.9667 -82.5500 180° South 167 192 900  Level Tampa TRACON
06:12PM 27.9333 -82.5500 180° South 187 215 2,600 2,760 Climbing Tampa TRACON
06:12PM 27.8833 -82.5667 196° South 216 249 5,400 2,400 Climbing Tampa TRACON
06:13PM 27.8667 -82.6333 254° West 250 288 7,200 1,380 Climbing Tampa TRACON
06:16PM 28.0392 -82.6339 360° North 262 302 9,800 1,260 Climbing Jacksonville Center
06:17PM 28.1331 -82.6172 North 304 350 11,300 1,800 Climbing Jacksonville Center
06:18PM 28.2311 -82.6028 North 340 391 13,400 2,820 Climbing Jacksonville Center
06:19PM 28.3269 -82.6097 356° North 346 398 17,000 3,300 Climbing Jacksonville Center
06:20PM 28.4147 -82.6189 355° North 336 387 20,000 2,340 Climbing Jacksonville Center
06:21PM 28.5128 -82.6281 355° North 336 387 21,700 1,860 Climbing Jacksonville Center
06:22PM 28.6172 -82.6347 357° North 350 403 23,800 1,680 Climbing Jacksonville Center
06:23PM 28.7297 -82.6417 357° North 380 437 25,100 2,100 Climbing Jacksonville Center
06:24PM 28.8425 -82.6508 356° North 395 455 28,100 2,220 Climbing Jacksonville Center
06:25PM 28.9553 -82.6600 356° North 405 466 29,600 1,320 Climbing Jacksonville Center
06:26PM 29.0742 -82.6669 357° North 410 472 30,800 1,200 Climbing Jacksonville Center
06:27PM 29.1975 -82.6761 356° North 424 488 32,100 1,200 Climbing Jacksonville Center
06:28PM 29.3247 -82.6853 356° North 444 511 33,200 900 Climbing Jacksonville Center
06:29PM 29.4439 -82.6922 357° North 463 533 34,000 540 Climbing Jacksonville Center
06:30PM 29.5775 -82.6872 North 469 540 34,300 600 Climbing Jacksonville Center
06:31PM 29.7089 -82.6486 14° North 474 545 35,200 1,020 Climbing Jacksonville Center
06:32PM 29.8425 -82.6078 15° North 481 554 36,400 1,080 Climbing Jacksonville Center
06:33PM 29.9758 -82.5808 10° North 486 559 37,400 780 Climbing Jacksonville Center
06:34PM 30.1075 -82.5853 358° North 481 554 38,000 300 Climbing Jacksonville Center
06:35PM 30.2350 -82.6136 349° North 470 541 38,000  Level Jacksonville Center
06:36PM 30.3581 -82.6447 348° North 465 535 38,000 360 Level Jacksonville Center
06:37PM 30.4878 -82.6756 348° North 459 528 38,800 480 Climbing Jacksonville Center
06:38PM 30.6211 -82.6342 15° North 465 535 39,000 60 Climbing Jacksonville Center
06:39PM 30.7525 -82.5686 23° Northeast 479 551 39,000  Level Jacksonville Center
06:40PM 30.8839 -82.5053 22° Northeast 494 568 39,000  Level Jacksonville Center
06:41PM 31.0153 -82.4417 23° Northeast 499 574 39,000  Level Jacksonville Center
06:42PM 31.1569 -82.3756 22° Northeast 505 581 39,000  Level Jacksonville Center
06:43PM 31.2883 -82.3117 23° Northeast 500 575 39,000  Level Jacksonville Center
06:44PM 31.4175 -82.2475 23° Northeast 500 575 39,000  Level Jacksonville Center
06:45PM 31.5486 -82.1808 23° Northeast 500 575 39,000  Level Jacksonville Center
06:46PM 31.6797 -82.1139 23° Northeast 505 581 39,000  Level Jacksonville Center
06:47PM 31.7964 -82.0542 24° Northeast 505 581 39,000  Level Jacksonville Center
06:48PM 31.9400 -81.9842 22° Northeast 505 581 39,000  Level Jacksonville Center
06:49PM 32.0750 -81.9217 21° North 517 595 39,000  Level Jacksonville Center
06:50PM 32.1958 -81.8589 24° Northeast 512 589 39,000  Level Jacksonville Center
06:51PM 32.3306 -81.7592 32° Northeast 512 589 39,000 -420 Level Jacksonville Center
06:52PM 32.4508 -81.6642 34° Northeast 524 603 38,200 -900 Descending Jacksonville Center
06:53PM 32.5542 -81.5567 41° Northeast 529 609 37,300 -720 Descending Jacksonville Center
06:54PM 32.6761 -81.4586 34° Northeast 529 609 36,800 -1,140 Descending Jacksonville Center
06:55PM 32.8233 -81.3625 29° Northeast 535 616 35,100 -1,620 Descending Jacksonville Center
06:56PM 32.9494 -81.2811 28° Northeast 524 603 33,600 -1,560 Descending Jacksonville Center
06:57PM 33.0739 -81.2019 28° Northeast 509 586 32,000 -1,500 Descending Jacksonville Center
06:58PM 33.1958 -81.1253 28° Northeast 498 573 30,700 -1,260 Descending Jacksonville Center
06:59PM 33.3117 -81.0483 29° Northeast 485 558 29,500 -900 Descending Jacksonville Center
07:00PM 33.4253 -80.9714 29° Northeast 472 543 28,900 -300 Descending Jacksonville Center
07:01PM 33.5389 -80.8967 29° Northeast 466 536 29,000 -420 Climbing Jacksonville Center
07:02PM 33.6503 -80.8217 29° Northeast 460 529 28,100 -1,020 Descending Jacksonville Center
07:03PM 33.7597 -80.7517 28° Northeast 450 518 27,000 -1,080 Descending Jacksonville Center
07:04PM 33.8669 -80.6789 29° Northeast 444 511 26,000 -1,020 Descending Jacksonville Center
07:05PM 33.9703 -80.6114 28° Northeast 433 498 25,000 -780 Descending Jacksonville Center
07:06PM 34.0794 -80.5383 29° Northeast 433 498 24,500 -540 Descending Jacksonville Center
07:07PM 34.1886 -80.4650 29° Northeast 433 498 24,000 -300 Descending Jacksonville Center
07:08PM 34.2958 -80.3942 29° Northeast 433 498 24,000  Level Jacksonville Center
07:09PM 34.4047 -80.3206 29° Northeast 433 498 24,000 -360 Level Jacksonville Center
07:10PM 34.5139 -80.2467 29° Northeast 433 498 23,300 -360 Descending Jacksonville Center
07:12PM 34.7381 -80.0931 29° Northeast 439 505 23,000 -120 Descending Washington Center
07:13PM 34.8414 -80.0053 35° Northeast 439 505 23,000  Level Washington Center
07:14PM 34.9306 -79.9064 42° Northeast 439 505 23,000  Level Washington Center
07:15PM 35.0175 -79.8094 42° Northeast 424 488 23,000 -360 Level Washington Center
07:16PM 35.1003 -79.7147 43° Northeast 418 481 22,300 -1,320 Descending Washington Center
07:17PM 35.2083 -79.6008 41° Northeast 417 480 20,100 -1,800 Descending Washington Center
07:17PM 35.2575 -79.5625 32° Northeast 395 455 19,100 -1,980 Descending Washington Center
07:18PM 35.3514 -79.5011 28° Northeast 383 441 17,100 -1,740 Descending Washington Center
07:20PM 35.4414 -79.4314 32° Northeast 377 434 15,700 -1,440 Descending Washington Center
07:21PM 35.5361 -79.3417 38° Northeast 363 418 14,000 -1,500 Descending Washington Center
07:22PM 35.5956 -79.2397 54° Northeast 353 406 12,400 -1,500 Descending Washington Center
07:23PM 35.6439 -79.1550 55° Northeast 348 400 11,000 -1,380 Descending Washington Center
07:24PM 35.7075 -79.0531 52° Northeast 341 392 9,700 -1,380 Descending Washington Center
07:25PM 35.7603 -78.9631 54° Northeast 330 380 8,300 -900 Descending Washington Center
07:26PM 35.8003 -78.8725 61° Northeast 316 364 7,900 -420 Descending Washington Center
07:27PM 35.8031 -78.7728 88° East 291 335 7,500 -660 Descending Washington Center
07:28PM 35.8386 -78.6819 64° Northeast 283 326 6,600 -900 Descending Washington Center
07:29PM 35.8903 -78.6225 43° Northeast 226 260 5,700 -1,080 Descending Washington Center
07:30PM 35.9375 -78.5731 40° Northeast 193 222 4,300 -960 Descending Washington Center
07:31PM 35.9767 -78.5847 346° North 158 182 3,800 -600 Descending Washington Center
07:32PM 35.9733 -78.6358 265° West 140 161 3,100 -600 Descending Washington Center
07:33PM 35.9514 -78.6761 236° Southwest 143 165 2,600 -660 Descending Washington Center
07:34PM 35.9297 -78.7139 235° Southwest 144 166 1,900 -780 Descending Washington Center
07:35PM 35.9058 -78.7461 228° Southwest 128 147 1,200 -720 Descending Washington Center
07:36PM 35.8800 -78.7786 226° Southwest 130 150 500 -720 Descending Washington Center